sensor_id;sensor_type;location;lat;lon;timestamp;pressure;altitude;pressure_sealevel;temperature;humidity
21300;BME280;10809;49.476;11.016;2023-04-07T00:00:59;98333.41;;;6.37;37.15
21300;BME280;10809;49.476;11.016;2023-04-07T00:03:30;98332.59;;;6.35;37.28
21300;BME280;10809;49.476;11.016;2023-04-07T00:06:04;98335.28;;;6.33;37.08
21300;BME280;10809;49.476;11.016;2023-04-07T00:08:34;98331.03;;;6.31;37.29
21300;BME280;10809;49.476;11.016;2023-04-07T00:11:05;98329.31;;;6.30;37.15
21300;BME280;10809;49.476;11.016;2023-04-07T00:13:36;98331.19;;;6.26;37.23
21300;BME280;10809;49.476;11.016;2023-04-07T00:16:07;98326.06;;;6.23;37.63
21300;BME280;10809;49.476;11.016;2023-04-07T00:18:37;98334.94;;;6.19;37.42
21300;BME280;10809;49.476;11.016;2023-04-07T00:21:08;98334.19;;;6.17;37.43
21300;BME280;10809;49.476;11.016;2023-04-07T00:23:38;98336.91;;;6.14;37.48
21300;BME280;10809;49.476;11.016;2023-04-07T00:26:08;98348.38;;;6.12;37.26
21300;BME280;10809;49.476;11.016;2023-04-07T00:28:43;98334.53;;;6.08;37.47
21300;BME280;10809;49.476;11.016;2023-04-07T00:31:13;98337.28;;;6.05;37.30
21300;BME280;10809;49.476;11.016;2023-04-07T00:33:44;98339.09;;;6.03;37.12
21300;BME280;10809;49.476;11.016;2023-04-07T00:36:14;98342.63;;;6.02;37.09
21300;BME280;10809;49.476;11.016;2023-04-07T00:38:45;98346.22;;;5.99;37.16
21300;BME280;10809;49.476;11.016;2023-04-07T00:41:15;98334.97;;;5.96;37.18
21300;BME280;10809;49.476;11.016;2023-04-07T00:43:46;98330.66;;;5.93;37.08
21300;BME280;10809;49.476;11.016;2023-04-07T00:46:17;98332.53;;;5.91;37.41
21300;BME280;10809;49.476;11.016;2023-04-07T00:48:49;98318.56;;;5.89;37.18
21300;BME280;10809;49.476;11.016;2023-04-07T00:51:20;98312.56;;;5.86;37.48
21300;BME280;10809;49.476;11.016;2023-04-07T00:53:51;98308.28;;;5.83;37.28
21300;BME280;10809;49.476;11.016;2023-04-07T00:56:22;98304.00;;;5.81;37.42
21300;BME280;10809;49.476;11.016;2023-04-07T00:58:52;98305.94;;;5.76;37.02
21300;BME280;10809;49.476;11.016;2023-04-07T01:01:25;98308.75;;;5.71;37.30
21300;BME280;10809;49.476;11.016;2023-04-07T01:04:00;98303.66;;;5.67;37.18
21300;BME280;10809;49.476;11.016;2023-04-07T01:06:47;98301.13;;;5.64;37.36
21300;BME280;10809;49.476;11.016;2023-04-07T01:09:27;98304.66;;;5.63;37.49
21300;BME280;10809;49.476;11.016;2023-04-07T01:14:54;98295.94;;;5.62;37.68
21300;BME280;10809;49.476;11.016;2023-04-07T01:17:51;98289.75;;;5.63;37.63
21300;BME280;10809;49.476;11.016;2023-04-07T01:20:25;98284.50;;;5.63;37.65
21300;BME280;10809;49.476;11.016;2023-04-07T01:23:05;98295.03;;;5.63;37.76
21300;BME280;10809;49.476;11.016;2023-04-07T01:26:06;98291.53;;;5.63;37.61
21300;BME280;10809;49.476;11.016;2023-04-07T01:28:54;98286.22;;;5.64;37.73
21300;BME280;10809;49.476;11.016;2023-04-07T01:31:27;98286.28;;;5.63;37.46
21300;BME280;10809;49.476;11.016;2023-04-07T01:34:11;98286.22;;;5.64;37.96
21300;BME280;10809;49.476;11.016;2023-04-07T01:36:45;98288.78;;;5.66;38.08
21300;BME280;10809;49.476;11.016;2023-04-07T01:39:17;98285.16;;;5.70;37.92
21300;BME280;10809;49.476;11.016;2023-04-07T01:41:50;98285.09;;;5.71;37.79
21300;BME280;10809;49.476;11.016;2023-04-07T01:44:22;98278.03;;;5.73;38.17
21300;BME280;10809;49.476;11.016;2023-04-07T01:46:54;98277.97;;;5.75;38.05
21300;BME280;10809;49.476;11.016;2023-04-07T01:49:26;98268.31;;;5.75;37.86
21300;BME280;10809;49.476;11.016;2023-04-07T01:51:58;98273.50;;;5.77;38.10
21300;BME280;10809;49.476;11.016;2023-04-07T01:54:29;98270.88;;;5.77;38.03
21300;BME280;10809;49.476;11.016;2023-04-07T01:57:00;98271.75;;;5.77;37.99
21300;BME280;10809;49.476;11.016;2023-04-07T01:59:31;98270.03;;;5.76;38.34
21300;BME280;10809;49.476;11.016;2023-04-07T02:02:07;98275.34;;;5.75;37.91
21300;BME280;10809;49.476;11.016;2023-04-07T02:04:49;98269.22;;;5.74;37.98
21300;BME280;10809;49.476;11.016;2023-04-07T02:07:59;98260.47;;;5.74;38.01
21300;BME280;10809;49.476;11.016;2023-04-07T02:10:31;98258.78;;;5.73;38.04
21300;BME280;10809;49.476;11.016;2023-04-07T02:13:15;98259.78;;;5.69;38.06
21300;BME280;10809;49.476;11.016;2023-04-07T02:15:55;98256.38;;;5.67;38.40
21300;BME280;10809;49.476;11.016;2023-04-07T02:18:27;98259.06;;;5.65;38.52
21300;BME280;10809;49.476;11.016;2023-04-07T02:21:06;98255.63;;;5.63;38.25
21300;BME280;10809;49.476;11.016;2023-04-07T02:23:41;98256.53;;;5.62;38.57
21300;BME280;10809;49.476;11.016;2023-04-07T02:26:14;98252.25;;;5.60;38.59
21300;BME280;10809;49.476;11.016;2023-04-07T02:28:45;98257.56;;;5.58;38.82
21300;BME280;10809;49.476;11.016;2023-04-07T02:31:15;98257.59;;;5.57;38.82
21300;BME280;10809;49.476;11.016;2023-04-07T02:33:46;98251.56;;;5.55;39.17
21300;BME280;10809;49.476;11.016;2023-04-07T02:36:16;98247.28;;;5.52;39.32
21300;BME280;10809;49.476;11.016;2023-04-07T02:38:47;98252.63;;;5.49;39.06
21300;BME280;10809;49.476;11.016;2023-04-07T02:41:20;98250.06;;;5.48;39.47
21300;BME280;10809;49.476;11.016;2023-04-07T02:43:51;98250.13;;;5.46;39.30
21300;BME280;10809;49.476;11.016;2023-04-07T02:46:22;98250.22;;;5.43;39.56
21300;BME280;10809;49.476;11.016;2023-04-07T02:48:54;98258.22;;;5.40;39.34
21300;BME280;10809;49.476;11.016;2023-04-07T02:51:25;98261.81;;;5.38;39.47
21300;BME280;10809;49.476;11.016;2023-04-07T02:53:56;98256.69;;;5.35;39.46
21300;BME280;10809;49.476;11.016;2023-04-07T02:56:26;98262.03;;;5.32;39.56
21300;BME280;10809;49.476;11.016;2023-04-07T02:58:57;98262.09;;;5.30;39.91
21300;BME280;10809;49.476;11.016;2023-04-07T03:01:30;98264.81;;;5.27;39.99
21300;BME280;10809;49.476;11.016;2023-04-07T03:04:04;98263.97;;;5.27;39.67
21300;BME280;10809;49.476;11.016;2023-04-07T03:06:38;98261.44;;;5.24;39.69
21300;BME280;10809;49.476;11.016;2023-04-07T03:09:15;98260.59;;;5.23;39.60
21300;BME280;10809;49.476;11.016;2023-04-07T03:11:52;98248.31;;;5.24;40.04
21300;BME280;10809;49.476;11.016;2023-04-07T03:14:23;98252.72;;;5.23;39.76
21300;BME280;10809;49.476;11.016;2023-04-07T03:16:54;98256.25;;;5.22;40.22
21300;BME280;10809;49.476;11.016;2023-04-07T03:19:25;98250.13;;;5.22;40.27
21300;BME280;10809;49.476;11.016;2023-04-07T03:21:56;98242.28;;;5.20;40.28
21300;BME280;10809;49.476;11.016;2023-04-07T03:24:30;98250.16;;;5.20;40.18
21300;BME280;10809;49.476;11.016;2023-04-07T03:27:04;98249.25;;;5.21;40.04
21300;BME280;10809;49.476;11.016;2023-04-07T03:29:49;98245.75;;;5.22;40.45
21300;BME280;10809;49.476;11.016;2023-04-07T03:32:23;98245.75;;;5.22;40.24
21300;BME280;10809;49.476;11.016;2023-04-07T03:34:54;98252.75;;;5.22;40.34
21300;BME280;10809;49.476;11.016;2023-04-07T03:37:25;98245.75;;;5.22;40.28
21300;BME280;10809;49.476;11.016;2023-04-07T03:39:57;98242.25;;;5.22;40.32
21300;BME280;10809;49.476;11.016;2023-04-07T03:42:30;98243.06;;;5.24;40.68
21300;BME280;10809;49.476;11.016;2023-04-07T03:45:11;98248.31;;;5.24;40.31
21300;BME280;10809;49.476;11.016;2023-04-07T03:47:46;98236.94;;;5.25;40.78
21300;BME280;10809;49.476;11.016;2023-04-07T03:50:18;98244.81;;;5.25;40.66
21300;BME280;10809;49.476;11.016;2023-04-07T03:52:57;98239.50;;;5.26;40.94
21300;BME280;10809;49.476;11.016;2023-04-07T03:55:36;98239.44;;;5.28;40.56
21300;BME280;10809;49.476;11.016;2023-04-07T03:58:14;98242.06;;;5.28;40.55
21300;BME280;10809;49.476;11.016;2023-04-07T04:00:46;98242.97;;;5.27;40.92
21300;BME280;10809;49.476;11.016;2023-04-07T04:03:16;98243.88;;;5.26;40.79
21300;BME280;10809;49.476;11.016;2023-04-07T04:05:57;98237.72;;;5.27;40.81
21300;BME280;10809;49.476;11.016;2023-04-07T04:08:35;98232.63;;;5.22;40.52
21300;BME280;10809;49.476;11.016;2023-04-07T04:11:05;98234.47;;;5.19;40.93
21300;BME280;10809;49.476;11.016;2023-04-07T04:13:42;98238.06;;;5.16;40.88
21300;BME280;10809;49.476;11.016;2023-04-07T04:16:13;98235.59;;;5.12;40.73
21300;BME280;10809;49.476;11.016;2023-04-07T04:18:44;98235.66;;;5.10;40.63
21300;BME280;10809;49.476;11.016;2023-04-07T04:21:17;98231.38;;;5.08;40.95
21300;BME280;10809;49.476;11.016;2023-04-07T04:23:49;98234.94;;;5.05;41.11
21300;BME280;10809;49.476;11.016;2023-04-07T04:26:21;98247.22;;;5.05;40.91
21300;BME280;10809;49.476;11.016;2023-04-07T04:28:56;98237.69;;;5.02;41.05
21300;BME280;10809;49.476;11.016;2023-04-07T04:31:26;98233.28;;;5.03;41.47
21300;BME280;10809;49.476;11.016;2023-04-07T04:33:57;98232.44;;;5.02;41.10
21300;BME280;10809;49.476;11.016;2023-04-07T04:36:29;98230.66;;;5.03;41.15
21300;BME280;10809;49.476;11.016;2023-04-07T04:39:06;98228.97;;;5.02;41.44
21300;BME280;10809;49.476;11.016;2023-04-07T04:41:37;98232.44;;;5.02;41.46
21300;BME280;10809;49.476;11.016;2023-04-07T04:44:08;98230.66;;;5.03;41.74
21300;BME280;10809;49.476;11.016;2023-04-07T04:46:41;98234.16;;;5.03;41.41
21300;BME280;10809;49.476;11.016;2023-04-07T04:49:11;98230.66;;;5.03;42.06
21300;BME280;10809;49.476;11.016;2023-04-07T04:51:43;98230.63;;;5.04;41.75
21300;BME280;10809;49.476;11.016;2023-04-07T04:54:19;98228.88;;;5.05;42.01
21300;BME280;10809;49.476;11.016;2023-04-07T04:56:50;98229.66;;;5.07;41.65
21300;BME280;10809;49.476;11.016;2023-04-07T04:59:20;98244.44;;;5.09;41.82
21300;BME280;10809;49.476;11.016;2023-04-07T05:02:00;98245.22;;;5.11;41.76
21300;BME280;10809;49.476;11.016;2023-04-07T05:04:30;98242.50;;;5.14;42.07
21300;BME280;10809;49.476;11.016;2023-04-07T05:07:30;98240.63;;;5.18;41.79
21300;BME280;10809;49.476;11.016;2023-04-07T05:10:05;98235.28;;;5.21;41.90
21300;BME280;10809;49.476;11.016;2023-04-07T05:12:39;98242.19;;;5.25;42.19
21300;BME280;10809;49.476;11.016;2023-04-07T05:15:12;98240.28;;;5.28;42.20
21300;BME280;10809;49.476;11.016;2023-04-07T05:17:46;98235.78;;;5.32;42.07
21300;BME280;10809;49.476;11.016;2023-04-07T05:20:26;98229.50;;;5.36;42.18
21300;BME280;10809;49.476;11.016;2023-04-07T05:22:57;98235.47;;;5.41;41.85
21300;BME280;10809;49.476;11.016;2023-04-07T05:25:37;98231.78;;;5.45;41.67
21300;BME280;10809;49.476;11.016;2023-04-07T05:28:09;98235.19;;;5.48;41.58
21300;BME280;10809;49.476;11.016;2023-04-07T05:30:43;98234.19;;;5.51;41.30
21300;BME280;10809;49.476;11.016;2023-04-07T05:33:14;98231.47;;;5.54;41.24
21300;BME280;10809;49.476;11.016;2023-04-07T05:35:59;98236.53;;;5.58;41.21
21300;BME280;10809;49.476;11.016;2023-04-07T05:38:32;98234.72;;;5.60;41.23
21300;BME280;10809;49.476;11.016;2023-04-07T05:41:10;98229.31;;;5.65;41.57
21300;BME280;10809;49.476;11.016;2023-04-07T05:43:48;98234.44;;;5.68;41.36
21300;BME280;10809;49.476;11.016;2023-04-07T05:46:20;98229.00;;;5.72;41.64
21300;BME280;10809;49.476;11.016;2023-04-07T05:48:59;98224.44;;;5.77;41.58
21300;BME280;10809;49.476;11.016;2023-04-07T05:51:31;98225.97;;;5.83;41.75
21300;BME280;10809;49.476;11.016;2023-04-07T05:54:03;98226.66;;;5.88;42.19
21300;BME280;10809;49.476;11.016;2023-04-07T05:56:35;98225.56;;;5.93;41.93
21300;BME280;10809;49.476;11.016;2023-04-07T05:59:08;98227.19;;;5.97;41.49
21300;BME280;10809;49.476;11.016;2023-04-07T06:01:42;98225.22;;;6.02;41.57
21300;BME280;10809;49.476;11.016;2023-04-07T06:04:17;98227.53;;;6.10;41.51
21300;BME280;10809;49.476;11.016;2023-04-07T06:06:50;98232.56;;;6.16;41.52
21300;BME280;10809;49.476;11.016;2023-04-07T06:09:24;98234.06;;;6.23;41.45
21300;BME280;10809;49.476;11.016;2023-04-07T06:11:55;98229.34;;;6.31;41.42
21300;BME280;10809;49.476;11.016;2023-04-07T06:14:26;98228.19;;;6.38;41.59
21300;BME280;10809;49.476;11.016;2023-04-07T06:16:56;98229.63;;;6.45;41.50
21300;BME280;10809;49.476;11.016;2023-04-07T06:19:28;98225.84;;;6.52;41.36
21300;BME280;10809;49.476;11.016;2023-04-07T06:21:58;98236.13;;;6.58;41.23
21300;BME280;10809;49.476;11.016;2023-04-07T06:24:32;98230.56;;;6.66;41.36
21300;BME280;10809;49.476;11.016;2023-04-07T06:27:02;98232.81;;;6.75;41.25
21300;BME280;10809;49.476;11.016;2023-04-07T06:29:33;98233.41;;;6.81;40.99
21300;BME280;10809;49.476;11.016;2023-04-07T06:32:10;98231.28;;;6.89;41.11
21300;BME280;10809;49.476;11.016;2023-04-07T06:34:43;98228.34;;;6.97;40.96
21300;BME280;10809;49.476;11.016;2023-04-07T06:37:17;98230.63;;;7.04;40.98
21300;BME280;10809;49.476;11.016;2023-04-07T06:39:47;98232.13;;;7.11;41.03
21300;BME280;10809;49.476;11.016;2023-04-07T06:42:21;98227.38;;;7.19;40.82
21300;BME280;10809;49.476;11.016;2023-04-07T06:45:07;98229.38;;;7.34;41.45
21300;BME280;10809;49.476;11.016;2023-04-07T06:47:37;98224.84;;;7.56;41.75
21300;BME280;10809;49.476;11.016;2023-04-07T06:50:08;98214.78;;;7.85;41.96
21300;BME280;10809;49.476;11.016;2023-04-07T06:52:38;98216.88;;;8.14;42.41
21300;BME280;10809;49.476;11.016;2023-04-07T06:55:09;98211.78;;;8.46;42.17
21300;BME280;10809;49.476;11.016;2023-04-07T06:57:40;98218.88;;;8.81;42.08
21300;BME280;10809;49.476;11.016;2023-04-07T07:00:14;98216.22;;;9.15;41.38
21300;BME280;10809;49.476;11.016;2023-04-07T07:02:44;98217.22;;;9.47;41.47
21300;BME280;10809;49.476;11.016;2023-04-07T07:05:15;98203.34;;;9.75;41.25
21300;BME280;10809;49.476;11.016;2023-04-07T07:07:45;98201.03;;;10.01;40.68
21300;BME280;10809;49.476;11.016;2023-04-07T07:10:16;98197.97;;;10.24;40.11
21300;BME280;10809;49.476;11.016;2023-04-07T07:12:47;98199.41;;;10.45;40.05
21300;BME280;10809;49.476;11.016;2023-04-07T07:15:17;98199.13;;;10.65;39.86
21300;BME280;10809;49.476;11.016;2023-04-07T07:17:48;98199.00;;;10.82;39.92
21300;BME280;10809;49.476;11.016;2023-04-07T07:20:21;98196.91;;;11.03;39.49
21300;BME280;10809;49.476;11.016;2023-04-07T07:22:55;98201.09;;;11.21;39.33
21300;BME280;10809;49.476;11.016;2023-04-07T07:25:26;98200.22;;;11.36;39.01
21300;BME280;10809;49.476;11.016;2023-04-07T07:27:57;98198.44;;;11.51;38.93
21300;BME280;10809;49.476;11.016;2023-04-07T07:30:27;98204.59;;;11.65;38.84
21300;BME280;10809;49.476;11.016;2023-04-07T07:32:58;98204.59;;;11.79;38.94
21300;BME280;10809;49.476;11.016;2023-04-07T07:35:28;98205.53;;;11.92;nan
21300;BME280;10809;49.476;11.016;2023-04-07T07:37:59;98194.03;;;12.06;38.11
21300;BME280;10809;49.476;11.016;2023-04-07T07:40:30;98199.53;;;12.17;38.02
21300;BME280;10809;49.476;11.016;2023-04-07T07:43:00;98200.63;;;12.27;37.58
21300;BME280;10809;49.476;11.016;2023-04-07T07:45:31;98200.25;;;12.33;37.32
21300;BME280;10809;49.476;11.016;2023-04-07T07:48:01;98201.78;;;12.37;37.00
21300;BME280;10809;49.476;11.016;2023-04-07T07:50:32;98201.00;;;12.35;36.59
21300;BME280;10809;49.476;11.016;2023-04-07T07:53:04;98199.50;;;12.31;36.88
21300;BME280;10809;49.476;11.016;2023-04-07T07:55:34;98202.56;;;12.25;36.50
21300;BME280;10809;49.476;11.016;2023-04-07T07:58:05;98195.00;;;12.19;36.64
21300;BME280;10809;49.476;11.016;2023-04-07T08:00:35;98194.41;;;12.14;36.58
21300;BME280;10809;49.476;11.016;2023-04-07T08:03:06;98194.50;;;12.12;36.95
21300;BME280;10809;49.476;11.016;2023-04-07T08:05:36;98192.63;;;12.14;36.83
21300;BME280;10809;49.476;11.016;2023-04-07T08:08:07;98199.44;;;12.18;37.05
21300;BME280;10809;49.476;11.016;2023-04-07T08:10:37;98191.38;;;12.20;36.61
21300;BME280;10809;49.476;11.016;2023-04-07T08:13:08;98188.72;;;12.20;36.56
21300;BME280;10809;49.476;11.016;2023-04-07T08:15:41;98189.59;;;12.20;36.66
21300;BME280;10809;49.476;11.016;2023-04-07T08:18:12;98190.22;;;12.24;36.90
21300;BME280;10809;49.476;11.016;2023-04-07T08:20:42;98190.03;;;12.27;37.12
21300;BME280;10809;49.476;11.016;2023-04-07T08:23:13;98187.84;;;12.33;36.74
21300;BME280;10809;49.476;11.016;2023-04-07T08:25:44;98187.16;;;12.44;37.22
21300;BME280;10809;49.476;11.016;2023-04-07T08:28:14;98195.31;;;12.55;36.98
21300;BME280;10809;49.476;11.016;2023-04-07T08:30:45;98191.06;;;12.65;37.04
21300;BME280;10809;49.476;11.016;2023-04-07T08:33:15;98195.06;;;12.72;36.80
21300;BME280;10809;49.476;11.016;2023-04-07T08:35:46;98188.38;;;12.79;36.69
21300;BME280;10809;49.476;11.016;2023-04-07T08:38:16;98184.44;;;12.84;36.70
21300;BME280;10809;49.476;11.016;2023-04-07T08:40:51;98190.41;;;12.88;36.40
21300;BME280;10809;49.476;11.016;2023-04-07T08:43:25;98189.44;;;12.89;36.19
21300;BME280;10809;49.476;11.016;2023-04-07T08:45:57;98187.97;;;12.85;35.98
21300;BME280;10809;49.476;11.016;2023-04-07T08:48:33;98184.13;;;12.76;36.05
21300;BME280;10809;49.476;11.016;2023-04-07T08:51:05;98190.88;;;12.68;35.85
21300;BME280;10809;49.476;11.016;2023-04-07T08:53:48;98195.97;;;12.58;36.24
21300;BME280;10809;49.476;11.016;2023-04-07T08:56:25;98190.19;;;12.52;36.40
21300;BME280;10809;49.476;11.016;2023-04-07T08:58:55;98191.34;;;12.48;36.42
21300;BME280;10809;49.476;11.016;2023-04-07T09:01:26;98191.56;;;12.45;36.41
21300;BME280;10809;49.476;11.016;2023-04-07T09:03:57;98190.78;;;12.43;36.77
21300;BME280;10809;49.476;11.016;2023-04-07T09:06:31;98189.94;;;12.42;36.87
21300;BME280;10809;49.476;11.016;2023-04-07T09:09:02;98191.84;;;12.40;36.49
21300;BME280;10809;49.476;11.016;2023-04-07T09:11:39;98195.44;;;12.39;36.60
21300;BME280;10809;49.476;11.016;2023-04-07T09:14:09;98193.63;;;12.40;37.00
21300;BME280;10809;49.476;11.016;2023-04-07T09:16:40;98191.84;;;12.40;36.67
21300;BME280;10809;49.476;11.016;2023-04-07T09:19:11;98190.78;;;12.43;36.64
21300;BME280;10809;49.476;11.016;2023-04-07T09:21:57;98183.47;;;12.46;36.90
21300;BME280;10809;49.476;11.016;2023-04-07T09:24:31;98187.44;;;12.53;36.79
21300;BME280;10809;49.476;11.016;2023-04-07T09:27:15;98191.28;;;12.62;37.24
21300;BME280;10809;49.476;11.016;2023-04-07T09:29:47;98181.78;;;12.72;36.78
21300;BME280;10809;49.476;11.016;2023-04-07T09:32:36;98180.00;;;12.85;36.88
21300;BME280;10809;49.476;11.016;2023-04-07T09:35:10;98187.34;;;12.94;36.47
21300;BME280;10809;49.476;11.016;2023-04-07T09:38:00;98193.09;;;13.00;36.56
21300;BME280;10809;49.476;11.016;2023-04-07T09:40:30;98182.28;;;13.03;36.21
21300;BME280;10809;49.476;11.016;2023-04-07T09:43:03;98175.88;;;13.06;36.46
21300;BME280;10809;49.476;11.016;2023-04-07T09:45:33;98182.72;;;13.10;36.20
21300;BME280;10809;49.476;11.016;2023-04-07T09:48:17;98174.44;;;13.15;36.25
21300;BME280;10809;49.476;11.016;2023-04-07T09:50:47;98169.00;;;13.16;36.30
21300;BME280;10809;49.476;11.016;2023-04-07T09:53:18;98169.72;;;13.18;35.78
21300;BME280;10809;49.476;11.016;2023-04-07T09:55:52;98162.50;;;13.20;35.78
21300;BME280;10809;49.476;11.016;2023-04-07T09:58:29;98172.28;;;13.20;35.86
21300;BME280;10809;49.476;11.016;2023-04-07T10:01:00;98159.97;;;13.19;35.90
21300;BME280;10809;49.476;11.016;2023-04-07T10:03:31;98165.06;;;13.22;36.16
21300;BME280;10809;49.476;11.016;2023-04-07T10:06:06;98169.09;;;13.27;36.36
21300;BME280;10809;49.476;11.016;2023-04-07T10:08:39;98169.53;;;13.34;36.33
21300;BME280;10809;49.476;11.016;2023-04-07T10:11:14;98165.34;;;13.44;36.73
21300;BME280;10809;49.476;11.016;2023-04-07T10:13:45;98160.31;;;13.52;36.32
21300;BME280;10809;49.476;11.016;2023-04-07T10:16:15;98157.88;;;13.61;36.13
21300;BME280;10809;49.476;11.016;2023-04-07T10:18:49;98160.00;;;13.69;35.64
21300;BME280;10809;49.476;11.016;2023-04-07T10:21:21;98157.75;;;13.75;36.00
21300;BME280;10809;49.476;11.016;2023-04-07T10:26:57;98157.81;;;13.86;35.90
21300;BME280;10809;49.476;11.016;2023-04-07T10:29:34;98159.22;;;13.92;36.10
21300;BME280;10809;49.476;11.016;2023-04-07T10:32:06;98152.59;;;13.97;35.89
21300;BME280;10809;49.476;11.016;2023-04-07T10:37:24;98153.22;;;14.13;35.84
21300;BME280;10809;49.476;11.016;2023-04-07T10:42:56;98154.31;;;14.34;35.42
21300;BME280;10809;49.476;11.016;2023-04-07T10:48:18;98152.66;;;14.57;34.87
21300;BME280;10809;49.476;11.016;2023-04-07T10:51:12;98152.72;;;14.68;35.15
21300;BME280;10809;49.476;11.016;2023-04-07T10:54:22;98152.75;;;14.79;34.78
21300;BME280;10809;49.476;11.016;2023-04-07T10:57:06;98150.13;;;14.90;35.03
21300;BME280;10809;49.476;11.016;2023-04-07T11:02:42;98151.03;;;15.02;33.37
21300;BME280;10809;49.476;11.016;2023-04-07T11:05:22;98146.03;;;14.97;33.96
21300;BME280;10809;49.476;11.016;2023-04-07T11:07:53;98150.00;;;14.92;33.45
21300;BME280;10809;49.476;11.016;2023-04-07T11:10:28;98143.56;;;14.83;33.35
21300;BME280;10809;49.476;11.016;2023-04-07T11:13:06;98144.03;;;14.77;33.95
21300;BME280;10809;49.476;11.016;2023-04-07T11:15:37;98136.38;;;14.73;33.67
21300;BME280;10809;49.476;11.016;2023-04-07T11:18:18;98140.97;;;14.70;34.11
21300;BME280;10809;49.476;11.016;2023-04-07T11:20:54;98133.09;;;14.69;33.78
21300;BME280;10809;49.476;11.016;2023-04-07T11:23:26;98133.19;;;14.67;33.76
21300;BME280;10809;49.476;11.016;2023-04-07T11:26:01;98130.31;;;14.70;33.54
21300;BME280;10809;49.476;11.016;2023-04-07T11:28:32;98122.94;;;14.74;33.49
21300;BME280;10809;49.476;11.016;2023-04-07T11:31:02;98122.69;;;14.77;33.64
21300;BME280;10809;49.476;11.016;2023-04-07T11:33:33;98122.47;;;14.80;33.44
21300;BME280;10809;49.476;11.016;2023-04-07T11:36:06;98128.41;;;14.84;33.47
21300;BME280;10809;49.476;11.016;2023-04-07T11:38:37;98119.22;;;14.88;33.53
21300;BME280;10809;49.476;11.016;2023-04-07T11:41:13;98124.09;;;14.94;33.65
21300;BME280;10809;49.476;11.016;2023-04-07T11:43:44;98116.47;;;15.00;33.59
21300;BME280;10809;49.476;11.016;2023-04-07T11:46:18;98118.31;;;15.11;33.44
21300;BME280;10809;49.476;11.016;2023-04-07T11:48:48;98115.66;;;15.22;33.77
21300;BME280;10809;49.476;11.016;2023-04-07T11:51:20;98122.59;;;15.35;33.64
21300;BME280;10809;49.476;11.016;2023-04-07T11:53:54;98107.50;;;15.47;33.19
21300;BME280;10809;49.476;11.016;2023-04-07T11:56:25;98103.34;;;15.54;32.72
21300;BME280;10809;49.476;11.016;2023-04-07T11:58:57;98109.19;;;15.59;32.55
21300;BME280;10809;49.476;11.016;2023-04-07T12:01:39;98106.66;;;15.57;33.20
21300;BME280;10809;49.476;11.016;2023-04-07T12:04:14;98107.00;;;15.53;32.68
21300;BME280;10809;49.476;11.016;2023-04-07T12:06:54;98103.97;;;15.46;32.75
21300;BME280;10809;49.476;11.016;2023-04-07T12:09:32;98108.81;;;15.41;33.03
21300;BME280;10809;49.476;11.016;2023-04-07T12:12:06;98112.69;;;15.37;32.57
21300;BME280;10809;49.476;11.016;2023-04-07T12:14:37;98105.25;;;15.30;32.40
21300;BME280;10809;49.476;11.016;2023-04-07T12:17:21;98109.25;;;15.24;33.17
21300;BME280;10809;49.476;11.016;2023-04-07T12:19:52;98112.03;;;15.23;32.72
21300;BME280;10809;49.476;11.016;2023-04-07T12:22:22;98103.06;;;15.24;32.70
21300;BME280;10809;49.476;11.016;2023-04-07T12:24:53;98103.81;;;15.26;32.88
21300;BME280;10809;49.476;11.016;2023-04-07T12:27:23;98108.28;;;15.25;33.09
21300;BME280;10809;49.476;11.016;2023-04-07T12:29:54;98106.34;;;15.27;33.19
21300;BME280;10809;49.476;11.016;2023-04-07T12:32:25;98112.28;;;15.31;33.27
21300;BME280;10809;49.476;11.016;2023-04-07T12:34:55;98110.22;;;15.34;33.06
21300;BME280;10809;49.476;11.016;2023-04-07T12:37:26;98109.13;;;15.37;33.04
21300;BME280;10809;49.476;11.016;2023-04-07T12:39:56;98111.59;;;15.40;33.08
21300;BME280;10809;49.476;11.016;2023-04-07T12:42:28;98107.13;;;15.40;32.90
21300;BME280;10809;49.476;11.016;2023-04-07T12:44:58;98106.88;;;15.43;33.18
21300;BME280;10809;49.476;11.016;2023-04-07T12:47:28;98109.06;;;15.49;33.37
21300;BME280;10809;49.476;11.016;2023-04-07T12:50:06;98098.75;;;15.56;33.12
21300;BME280;10809;49.476;11.016;2023-04-07T12:52:37;98100.09;;;15.61;32.74
21300;BME280;10809;49.476;11.016;2023-04-07T12:55:14;98105.06;;;15.66;33.01
21300;BME280;10809;49.476;11.016;2023-04-07T12:57:47;98105.44;;;15.72;32.92
21300;BME280;10809;49.476;11.016;2023-04-07T13:00:18;98109.41;;;15.78;32.89
21300;BME280;10809;49.476;11.016;2023-04-07T13:02:48;98105.69;;;15.80;32.58
21300;BME280;10809;49.476;11.016;2023-04-07T13:05:19;98103.84;;;15.81;32.78
21300;BME280;10809;49.476;11.016;2023-04-07T13:07:50;98106.63;;;15.79;32.67
21300;BME280;10809;49.476;11.016;2023-04-07T13:10:21;98113.06;;;15.77;32.65
21300;BME280;10809;49.476;11.016;2023-04-07T13:12:51;98105.56;;;15.71;32.43
21300;BME280;10809;49.476;11.016;2023-04-07T13:15:22;98112.34;;;15.64;32.34
21300;BME280;10809;49.476;11.016;2023-04-07T13:17:54;98107.75;;;15.55;33.01
21300;BME280;10809;49.476;11.016;2023-04-07T13:20:24;98111.84;;;15.48;33.10
21300;BME280;10809;49.476;11.016;2023-04-07T13:22:57;98107.84;;;15.42;33.11
21300;BME280;10809;49.476;11.016;2023-04-07T13:25:27;98118.97;;;15.36;32.88
21300;BME280;10809;49.476;11.016;2023-04-07T13:27:58;98112.28;;;15.31;32.99
21300;BME280;10809;49.476;11.016;2023-04-07T13:30:29;98114.22;;;15.29;33.67
21300;BME280;10809;49.476;11.016;2023-04-07T13:32:59;98104.28;;;15.31;33.79
21300;BME280;10809;49.476;11.016;2023-04-07T13:35:30;98103.91;;;15.35;33.76
21300;BME280;10809;49.476;11.016;2023-04-07T13:38:07;98102.41;;;15.44;33.93
21300;BME280;10809;49.476;11.016;2023-04-07T13:40:38;98112.47;;;15.51;33.84
21300;BME280;10809;49.476;11.016;2023-04-07T13:43:09;98106.53;;;15.59;34.07
21300;BME280;10809;49.476;11.016;2023-04-07T13:45:41;98104.69;;;15.70;34.15